createdAt,value
2022-09-27T00:00:00.392Z,173.8
2022-09-27T00:05:00.462Z,164.5
2022-09-27T00:10:00.384Z,166.7
2022-09-27T00:15:00.355Z,190.0
2022-09-27T00:20:00.391Z,178.7
2022-09-27T00:25:00.352Z,175.9
2022-09-27T00:30:00.396Z,161.3
2022-09-27T00:35:00.343Z,173.5
2022-09-27T00:40:00.390Z,179.2
2022-09-27T00:45:00.382Z,172.4
2022-09-27T00:50:00.380Z,162.3
2022-09-27T00:55:00.343Z,173.2
2022-09-27T01:00:00.421Z,188.5
2022-09-27T01:05:00.325Z,170.1
2022-09-27T01:10:00.391Z,169.1
2022-09-27T01:15:00.377Z,167.3
2022-09-27T01:20:00.403Z,179.5
2022-09-27T01:25:00.354Z,181.4
2022-09-27T01:30:00.394Z,168.5
2022-09-27T01:35:00.338Z,173.4
2022-09-27T01:40:00.413Z,168.2
2022-09-27T01:45:00.369Z,186.4
2022-09-27T01:50:00.378Z,183.2
2022-09-27T01:55:00.371Z,166.2
2022-09-27T02:00:00.402Z,173.3
2022-09-27T02:05:00.354Z,167.0
2022-09-27T02:10:00.368Z,177.1
2022-09-27T02:15:00.398Z,180.7
2022-09-27T02:20:00.393Z,180.9
2022-09-27T02:25:00.324Z,186.8
2022-09-27T02:30:00.362Z,177.6
2022-09-27T02:35:00.343Z,179.2
2022-09-27T02:40:00.393Z,181.0
2022-09-27T02:45:00.385Z,162.3
2022-09-27T02:50:00.384Z,185.2
2022-09-27T02:55:00.381Z,161.4
2022-09-27T03:00:00.548Z,172.5
2022-09-27T03:05:00.337Z,178.6
2022-09-27T03:10:00.406Z,182.3
2022-09-27T03:15:00.560Z,183.0
2022-09-27T03:20:00.397Z,180.0
2022-09-27T03:25:00.331Z,173.9
2022-09-27T03:30:00.397Z,198.0
2022-09-27T03:35:00.366Z,183.1
2022-09-27T03:40:00.388Z,173.7
2022-09-27T03:45:00.349Z,170.3
2022-09-27T03:50:00.382Z,174.7
2022-09-27T03:55:02.778Z,169.2
2022-09-27T04:00:00.542Z,179.9
2022-09-27T04:05:00.354Z,172.3
2022-09-27T04:10:00.370Z,178.6
2022-09-27T04:15:00.383Z,166.5
2022-09-27T04:20:00.386Z,178.0
2022-09-27T04:25:00.358Z,185.5
2022-09-27T04:30:00.354Z,180.0
2022-09-27T04:35:00.366Z,179.4
2022-09-27T04:40:00.380Z,180.1
2022-09-27T04:45:00.350Z,181.1
2022-09-27T04:50:00.388Z,178.0
2022-09-27T04:55:00.380Z,175.4
2022-09-27T05:00:00.444Z,179.6
2022-09-27T05:05:00.347Z,174.9
2022-09-27T05:10:00.478Z,177.6
2022-09-27T05:15:00.367Z,171.3
2022-09-27T05:20:00.368Z,189.3
2022-09-27T05:25:00.424Z,175.8
2022-09-27T05:30:00.391Z,176.0
2022-09-27T05:35:00.353Z,189.9
2022-09-27T05:40:40.637Z,185.2
2022-09-27T05:45:00.372Z,173.7
2022-09-27T05:50:00.390Z,180.7
2022-09-27T05:55:00.435Z,165.7
2022-09-27T06:00:00.375Z,201.4
2022-09-27T06:05:00.329Z,175.5
2022-09-27T06:10:00.440Z,205.8
2022-09-27T06:15:00.337Z,169.6
2022-09-27T06:20:00.399Z,178.2
2022-09-27T06:25:00.464Z,181.6
2022-09-27T06:30:00.385Z,167.5
2022-09-27T06:35:00.380Z,189.5
2022-09-27T06:40:00.518Z,171.0
2022-09-27T06:45:00.365Z,182.8
2022-09-27T06:50:00.450Z,180.8
2022-09-27T06:55:00.385Z,173.2
2022-09-27T07:00:00.435Z,174.5
2022-09-27T07:05:00.367Z,168.6
2022-09-27T07:10:00.412Z,170.4
2022-09-27T07:15:00.381Z,184.3
2022-09-27T07:20:00.421Z,170.6
2022-09-27T07:25:00.408Z,177.5
2022-09-27T07:30:00.397Z,166.3
2022-09-27T07:35:00.408Z,180.2
2022-09-27T07:40:00.404Z,177.7
2022-09-27T07:45:00.379Z,175.2
2022-09-27T07:50:00.428Z,178.5
2022-09-27T07:55:00.366Z,182.9
2022-09-27T08:00:00.394Z,177.3
2022-09-27T08:05:00.390Z,170.5
2022-09-27T08:10:00.383Z,187.3
2022-09-27T08:15:00.391Z,195.4
2022-09-27T08:20:00.467Z,192.9
2022-09-27T08:25:00.398Z,163.7
2022-09-27T08:30:00.437Z,175.9
2022-09-27T08:35:00.423Z,173.9
2022-09-27T08:40:00.364Z,178.3
2022-09-27T08:45:04.210Z,176.1
2022-09-27T08:50:00.461Z,182.2
2022-09-27T09:00:00.435Z,177.5
2022-09-27T09:05:00.354Z,174.7
2022-09-27T09:10:00.383Z,171.7
2022-09-27T09:15:00.420Z,182.1
2022-09-27T09:20:00.379Z,185.7
2022-09-27T09:25:00.311Z,179.2
2022-09-27T09:30:00.433Z,182.1
2022-09-27T09:35:00.379Z,181.0
2022-09-27T09:40:09.405Z,185.1
2022-09-27T09:45:00.399Z,184.6
2022-09-27T09:50:00.396Z,174.4
2022-09-27T09:55:00.364Z,192.2
2022-09-27T10:00:00.426Z,191.3
2022-09-27T10:05:08.429Z,171.8
2022-09-27T10:10:00.423Z,181.4
2022-09-27T10:15:00.378Z,181.0
2022-09-27T10:20:00.407Z,190.4
2022-09-27T10:25:00.474Z,171.6
2022-09-27T10:30:00.404Z,170.0
2022-09-27T10:35:00.414Z,188.9
2022-09-27T10:40:00.386Z,189.5
2022-09-27T10:45:00.385Z,182.5
2022-09-27T10:50:00.415Z,175.8
2022-09-27T10:55:00.424Z,180.3
2022-09-27T11:00:00.453Z,189.7
2022-09-27T11:05:00.684Z,204.1
2022-09-27T11:10:00.362Z,191.1
2022-09-27T11:15:00.393Z,202.2
2022-09-27T11:20:00.381Z,196.4
2022-09-27T11:25:00.369Z,201.5
2022-09-27T11:30:00.399Z,199.9
2022-09-27T11:35:00.343Z,206.7
2022-09-27T11:40:00.410Z,205.2
2022-09-27T11:45:41.454Z,223.6
2022-09-27T11:50:00.391Z,206.6
2022-09-27T11:55:00.354Z,206.0
2022-09-27T12:00:00.412Z,217.4
2022-09-27T12:05:00.356Z,190.3
2022-09-27T12:10:00.379Z,223.2
2022-09-27T12:15:07.658Z,225.7
2022-09-27T12:20:00.389Z,221.5
2022-09-27T12:25:00.380Z,195.4
2022-09-27T12:30:00.647Z,213.2
2022-09-27T12:35:00.375Z,192.8
2022-09-27T12:40:00.418Z,196.6
2022-09-27T12:45:00.381Z,195.5
2022-09-27T12:50:02.441Z,192.5
2022-09-27T12:55:00.357Z,203.0
2022-09-27T13:00:00.428Z,208.0
2022-09-27T13:05:00.340Z,218.8
2022-09-27T13:10:00.368Z,197.6
2022-09-27T13:15:00.368Z,190.9
2022-09-27T13:20:00.435Z,191.4
2022-09-27T13:25:00.356Z,197.7
2022-09-27T13:30:00.374Z,218.3
2022-09-27T13:35:00.412Z,203.5
2022-09-27T13:40:00.399Z,195.8
2022-09-27T13:45:00.403Z,208.4
2022-09-27T13:50:00.440Z,228.0
2022-09-27T13:55:00.402Z,213.9
2022-09-27T14:00:00.439Z,195.6
2022-09-27T14:05:00.371Z,196.4
2022-09-27T14:10:00.583Z,198.2
2022-09-27T14:15:00.363Z,217.8
2022-09-27T14:20:00.402Z,198.5
2022-09-27T14:25:00.370Z,191.2
2022-09-27T14:30:00.433Z,205.6
2022-09-27T14:35:00.403Z,196.5
2022-09-27T14:40:00.557Z,196.5
2022-09-27T14:45:00.388Z,188.9
2022-09-27T14:50:00.460Z,201.9
2022-09-27T14:55:00.391Z,201.6
2022-09-27T15:00:00.471Z,196.4
2022-09-27T15:05:00.423Z,202.5
2022-09-27T15:10:00.426Z,219.4
2022-09-27T15:15:00.389Z,190.1
2022-09-27T15:20:00.415Z,192.6
2022-09-27T15:25:00.355Z,187.1
2022-09-27T15:30:00.450Z,190.9
2022-09-27T15:35:00.375Z,194.0
2022-09-27T15:40:00.418Z,198.1
2022-09-27T15:45:00.441Z,194.0
2022-09-27T15:50:00.394Z,199.5
2022-09-27T15:55:00.406Z,196.2
2022-09-27T16:00:00.394Z,193.5
2022-09-27T16:05:00.400Z,196.1
2022-09-27T16:10:00.457Z,198.8
2022-09-27T16:15:00.425Z,201.2
2022-09-27T16:20:00.417Z,223.2
2022-09-27T16:25:00.384Z,219.9
2022-09-27T16:30:00.445Z,227.3
2022-09-27T16:35:00.335Z,210.7
2022-09-27T16:40:00.393Z,226.6
2022-09-27T16:45:00.330Z,230.6
2022-09-27T16:50:00.449Z,217.4
2022-09-27T16:55:00.450Z,210.9
2022-09-27T17:00:00.437Z,240.9
2022-09-27T17:05:00.331Z,238.7
2022-09-27T17:10:00.464Z,203.5
2022-09-27T17:15:00.370Z,203.9
2022-09-27T17:20:00.352Z,203.1
2022-09-27T17:25:00.357Z,201.4
2022-09-27T17:30:00.408Z,201.7
2022-09-27T17:35:00.365Z,196.2
2022-09-27T17:40:00.382Z,202.3
2022-09-27T17:45:00.506Z,212.4
2022-09-27T17:50:00.369Z,195.1
2022-09-27T17:55:00.361Z,205.8
2022-09-27T18:00:00.406Z,195.7
2022-09-27T18:05:00.352Z,184.1
2022-09-27T18:10:00.386Z,190.0
2022-09-27T18:15:00.385Z,196.1
2022-09-27T18:20:00.399Z,185.4
2022-09-27T18:25:00.368Z,193.2
2022-09-27T18:30:00.495Z,193.9
2022-09-27T18:35:00.395Z,190.1
2022-09-27T18:40:00.421Z,195.0
2022-09-27T18:45:00.375Z,198.7
2022-09-27T18:50:00.370Z,195.5
2022-09-27T18:55:00.402Z,201.2
2022-09-27T19:00:00.412Z,192.4
2022-09-27T19:05:00.392Z,203.2
2022-09-27T19:10:00.403Z,200.3
2022-09-27T19:15:00.376Z,189.6
2022-09-27T19:20:00.401Z,197.0
2022-09-27T19:25:00.397Z,201.4
2022-09-27T19:30:00.370Z,203.5
2022-09-27T19:35:00.497Z,204.6
2022-09-27T19:40:00.403Z,196.1
2022-09-27T19:45:01.941Z,194.1
2022-09-27T19:50:00.374Z,190.4
2022-09-27T19:55:00.396Z,203.9
2022-09-27T20:00:00.398Z,190.7
2022-09-27T20:05:00.345Z,193.4
2022-09-27T20:10:00.379Z,198.6
2022-09-27T20:15:00.379Z,190.1
2022-09-27T20:20:00.417Z,194.6
2022-09-27T20:25:00.357Z,192.6
2022-09-27T20:30:00.444Z,194.2
2022-09-27T20:35:00.367Z,194.9
2022-09-27T20:40:00.388Z,199.8
2022-09-27T20:45:00.456Z,198.9
2022-09-27T20:50:02.905Z,200.1
2022-09-27T20:55:00.415Z,199.4
2022-09-27T21:00:00.388Z,200.6
2022-09-27T21:05:00.333Z,201.9
2022-09-27T21:10:00.561Z,195.2
2022-09-27T21:15:00.340Z,191.8
2022-09-27T21:20:00.407Z,196.9
2022-09-27T21:25:00.491Z,189.3
2022-09-27T21:30:00.423Z,200.7
2022-09-27T21:35:00.414Z,195.5
2022-09-27T21:40:00.414Z,204.8
2022-09-27T21:45:00.363Z,201.0
2022-09-27T21:50:00.427Z,192.7
2022-09-27T21:55:00.351Z,192.8
2022-09-27T22:00:00.519Z,200.5
2022-09-27T22:05:00.354Z,199.4
2022-09-27T22:10:00.380Z,198.2
2022-09-27T22:15:00.386Z,208.9
2022-09-27T22:20:00.352Z,204.0
2022-09-27T22:25:00.396Z,191.5
2022-09-27T22:30:00.410Z,188.9
2022-09-27T22:35:00.337Z,193.1
2022-09-27T22:40:00.392Z,197.4
2022-09-27T22:45:00.374Z,202.3
2022-09-27T22:50:00.373Z,192.4
2022-09-27T22:55:00.359Z,182.5
2022-09-27T23:00:00.393Z,173.1
2022-09-27T23:05:00.381Z,170.3
2022-09-27T23:10:00.380Z,189.1
2022-09-27T23:15:00.384Z,191.5
2022-09-27T23:20:00.384Z,187.2
2022-09-27T23:25:00.348Z,195.3
2022-09-27T23:30:00.361Z,173.7
2022-09-27T23:35:00.355Z,167.7
2022-09-27T23:40:00.398Z,170.6
2022-09-27T23:45:00.374Z,174.2
2022-09-27T23:50:00.429Z,185.7
2022-09-27T23:55:00.399Z,190.6
